Time;durP1;ratioP1;P1;durP2;ratioP2;P2;SDS_P1;SDS_P2;PMS_P1;PMS_P2;Temp;Humidity;BMP_temperature;BMP_pressure;BME280_temperature;BME280_humidity;BME280_pressure;Samples;Min_cycle;Max_cycle;Signal;HPM_P1;HPM_P2
2022/10/21 00:02:01;;;;;;;8.00;3.90;;;14.90;99.90;;;;;;5050660;28;20477;-77
2022/10/21 00:04:28;;;;;;;1.43;1.13;;;14.90;99.90;;;;;;5050668;28;20437;-77
2022/10/21 00:06:55;;;;;;;0.87;0.83;;;14.90;99.90;;;;;;5051061;28;20433;-76
2022/10/21 00:09:22;;;;;;;1.83;0.67;;;14.90;99.90;;;;;;5050739;28;20523;-76
2022/10/21 00:11:48;;;;;;;1.57;1.50;;;15.00;99.90;;;;;;5050910;28;20885;-76
2022/10/21 00:14:16;;;;;;;0.60;0.60;;;15.00;99.90;;;;;;5049947;28;20443;-77
2022/10/21 00:16:43;;;;;;;1.30;1.30;;;15.00;99.90;;;;;;5051145;28;20439;-77
2022/10/21 00:19:10;;;;;;;1.47;1.37;;;15.00;99.90;;;;;;5050716;28;20441;-76
2022/10/21 00:21:37;;;;;;;0.90;0.90;;;15.00;99.90;;;;;;5050277;28;20490;-77
2022/10/21 00:24:04;;;;;;;1.97;1.17;;;15.00;99.90;;;;;;5052647;28;20443;-77
2022/10/21 00:26:31;;;;;;;0.60;0.57;;;15.00;99.90;;;;;;5073140;28;20432;-77
2022/10/21 00:28:58;;;;;;;0.50;0.50;;;15.00;99.90;;;;;;5074469;28;20444;-76
2022/10/21 00:31:26;;;;;;;1.57;1.23;;;15.00;99.90;;;;;;5074518;28;20452;-77
2022/10/21 00:33:53;;;;;;;0.90;0.50;;;15.00;99.90;;;;;;5073527;28;20536;-76
2022/10/21 00:36:20;;;;;;;0.70;0.70;;;15.00;99.90;;;;;;5074352;28;20527;-77
2022/10/21 00:38:48;;;;;;;0.50;0.40;;;15.00;99.90;;;;;;5074427;28;20442;-77
2022/10/21 00:41:17;;;;;;;1.37;1.27;;;15.00;99.90;;;;;;5074091;28;20476;-77
2022/10/21 00:43:56;;;;;;;1.57;0.83;;;15.00;99.90;;;;;;5073671;28;20431;-75
2022/10/21 00:46:35;;;;;;;1.00;0.83;;;15.00;99.90;;;;;;5077563;22;20496;-75
2022/10/21 00:49:05;;;;;;;3.20;1.60;;;15.00;99.90;;;;;;5053162;28;20512;-75
2022/10/21 00:51:32;;;;;;;1.00;1.00;;;15.00;99.90;;;;;;5053965;28;20806;-74
2022/10/21 00:54:00;;;;;;;1.37;1.00;;;15.00;99.90;;;;;;5053064;28;20439;-74
2022/10/21 00:56:30;;;;;;;0.57;0.57;;;14.90;99.90;;;;;;5054086;28;20464;-74
2022/10/21 00:59:00;;;;;;;0.50;0.40;;;14.90;99.90;;;;;;5053607;28;20448;-75
2022/10/21 01:01:27;;;;;;;0.50;0.40;;;14.90;99.90;;;;;;5053775;28;20508;-75
2022/10/21 01:03:55;;;;;;;13.77;3.10;;;14.90;99.90;;;;;;5053690;28;20444;-72
2022/10/21 01:06:25;;;;;;;5.77;2.40;;;14.90;99.90;;;;;;5053187;28;20459;-75
2022/10/21 01:08:54;;;;;;;1.00;0.90;;;14.90;99.90;;;;;;5053877;28;20957;-74
2022/10/21 01:11:22;;;;;;;2.30;1.67;;;14.90;99.90;;;;;;5053920;28;20807;-74
2022/10/21 01:14:03;;;;;;;0.60;0.57;;;14.90;99.90;;;;;;5053210;28;20537;-75
2022/10/21 01:16:39;;;;;;;1.43;0.93;;;14.90;99.90;;;;;;5053746;28;20907;-74
2022/10/21 01:19:22;;;;;;;0.77;0.77;;;14.90;99.90;;;;;;5053404;28;20519;-74
2022/10/21 01:21:53;;;;;;;0.77;0.77;;;14.90;99.90;;;;;;5053652;28;20457;-76
2022/10/21 01:24:36;;;;;;;1.93;1.17;;;14.90;99.90;;;;;;5053392;28;20428;-74
2022/10/21 01:27:19;;;;;;;0.60;0.50;;;14.80;99.90;;;;;;5053052;28;20457;-75
2022/10/21 01:30:09;;;;;;;4.50;0.90;;;14.80;99.90;;;;;;5053511;28;20520;-74
2022/10/21 01:32:47;;;;;;;0.90;0.50;;;14.80;99.90;;;;;;5053409;28;20433;-74
2022/10/21 01:35:20;;;;;;;1.57;1.03;;;14.80;99.90;;;;;;5052789;28;20491;-74
2022/10/21 01:37:55;;;;;;;1.27;1.27;;;14.80;99.90;;;;;;5053149;28;20476;-74
2022/10/21 01:40:29;;;;;;;0.50;0.50;;;14.70;99.90;;;;;;5053752;28;20504;-75
2022/10/21 01:43:00;;;;;;;0.50;0.40;;;14.70;99.90;;;;;;5053554;28;20460;-75
2022/10/21 01:45:36;;;;;;;0.50;0.40;;;14.60;99.90;;;;;;5052966;28;20441;-74
2022/10/21 01:48:09;;;;;;;2.00;1.53;;;14.60;99.90;;;;;;5052776;28;20472;-75
2022/10/21 01:50:41;;;;;;;0.50;0.40;;;14.60;99.90;;;;;;5053094;28;20853;-75
2022/10/21 01:53:12;;;;;;;0.50;0.40;;;14.50;99.90;;;;;;5053026;28;20422;-75
2022/10/21 01:55:41;;;;;;;0.50;0.40;;;14.50;99.90;;;;;;5052430;28;20447;-75
2022/10/21 01:58:12;;;;;;;0.50;0.40;;;14.40;99.90;;;;;;5052552;28;20791;-75
2022/10/21 02:00:41;;;;;;;0.50;0.40;;;14.50;99.90;;;;;;5052962;28;20798;-75
2022/10/21 02:03:13;;;;;;;0.80;0.50;;;14.40;99.90;;;;;;5053029;28;20473;-75
2022/10/21 02:05:40;;;;;;;1.00;0.90;;;14.40;99.90;;;;;;5052773;28;20846;-75
2022/10/21 02:08:07;;;;;;;2.17;1.30;;;14.30;99.90;;;;;;5052554;28;20433;-74
2022/10/21 02:10:38;;;;;;;0.50;0.50;;;14.30;99.90;;;;;;5052228;28;20441;-74
2022/10/21 02:13:08;;;;;;;0.50;0.40;;;14.40;99.90;;;;;;5052150;28;20544;-74
2022/10/21 02:15:36;;;;;;;0.50;0.37;;;14.30;99.90;;;;;;5052138;28;20433;-75
2022/10/21 02:18:05;;;;;;;0.50;0.40;;;14.30;99.90;;;;;;5052494;28;20433;-75
2022/10/21 02:20:37;;;;;;;0.60;0.47;;;14.30;99.90;;;;;;5052451;28;20451;-72
2022/10/21 02:23:04;;;;;;;0.50;0.30;;;14.20;99.90;;;;;;5052191;28;20495;-75
2022/10/21 02:25:35;;;;;;;0.50;0.40;;;14.30;99.90;;;;;;5051823;28;20791;-74
2022/10/21 02:28:02;;;;;;;0.50;0.40;;;14.30;99.90;;;;;;5052670;28;20432;-76
2022/10/21 02:30:39;;;;;;;0.50;0.30;;;14.20;99.90;;;;;;5052411;28;20433;-75
2022/10/21 02:33:11;;;;;;;0.90;0.90;;;14.20;99.90;;;;;;5052047;28;20423;-75
2022/10/21 02:35:46;;;;;;;0.50;0.40;;;14.20;99.90;;;;;;5051709;28;20429;-75
2022/10/21 02:38:20;;;;;;;0.50;0.40;;;14.20;99.90;;;;;;5052003;28;20532;-75
2022/10/21 02:40:51;;;;;;;0.50;0.40;;;14.20;99.90;;;;;;5052239;28;20437;-75
2022/10/21 02:43:22;;;;;;;0.50;0.40;;;14.30;99.90;;;;;;5051650;28;20461;-75
2022/10/21 02:45:53;;;;;;;0.60;0.57;;;14.30;99.90;;;;;;5051250;28;20445;-75
2022/10/21 02:48:20;;;;;;;1.07;1.00;;;14.30;99.90;;;;;;5051552;28;21010;-75
2022/10/21 02:50:48;;;;;;;0.50;0.40;;;14.30;99.90;;;;;;5052151;28;20544;-74
2022/10/21 02:53:15;;;;;;;0.50;0.50;;;14.40;99.90;;;;;;5051916;28;20432;-74
2022/10/21 02:55:42;;;;;;;0.50;0.50;;;14.40;99.90;;;;;;5051357;28;20520;-75
2022/10/21 02:58:09;;;;;;;0.77;0.70;;;14.50;99.90;;;;;;5051975;28;20553;-75
2022/10/21 03:00:35;;;;;;;0.50;0.30;;;14.50;99.90;;;;;;5051834;28;20429;-74
2022/10/21 03:03:02;;;;;;;0.50;0.40;;;14.50;99.90;;;;;;5051464;28;20552;-75
2022/10/21 03:05:29;;;;;;;1.37;1.27;;;14.60;99.90;;;;;;5051340;28;21001;-74
2022/10/21 03:07:57;;;;;;;0.90;0.77;;;14.60;99.90;;;;;;5051407;28;20453;-74
2022/10/21 03:10:24;;;;;;;1.33;1.07;;;14.70;99.90;;;;;;5051840;28;20531;-75
2022/10/21 03:12:51;;;;;;;0.50;0.40;;;14.70;99.90;;;;;;5051495;28;20429;-74
2022/10/21 03:15:18;;;;;;;0.70;0.60;;;14.70;99.90;;;;;;5051607;28;20528;-74
2022/10/21 03:17:44;;;;;;;0.50;0.40;;;14.70;99.90;;;;;;5051073;28;20461;-74
2022/10/21 03:20:11;;;;;;;0.50;0.40;;;14.80;99.90;;;;;;5051655;28;20447;-75
2022/10/21 03:22:38;;;;;;;0.50;0.37;;;14.80;99.90;;;;;;5051401;28;20473;-74
2022/10/21 03:25:08;;;;;;;0.50;0.30;;;14.80;99.90;;;;;;5050936;28;20463;-75
2022/10/21 03:27:35;;;;;;;0.87;0.87;;;14.70;99.90;;;;;;5051052;28;20457;-74
2022/10/21 03:30:02;;;;;;;0.50;0.50;;;14.70;99.90;;;;;;5051806;28;20511;-75
2022/10/21 03:32:29;;;;;;;0.60;0.50;;;14.80;99.90;;;;;;5051541;28;20439;-75
2022/10/21 03:34:56;;;;;;;0.50;0.43;;;14.80;99.90;;;;;;5051004;28;20985;-75
2022/10/21 03:37:23;;;;;;;0.50;0.40;;;14.70;99.90;;;;;;5050994;28;20456;-75
2022/10/21 03:39:49;;;;;;;0.50;0.40;;;14.70;99.90;;;;;;5051580;28;20800;-74
2022/10/21 03:42:18;;;;;;;0.50;0.40;;;14.70;99.90;;;;;;5051214;28;20468;-74
2022/10/21 03:44:44;;;;;;;0.53;0.50;;;14.70;99.90;;;;;;5050914;28;20928;-75
2022/10/21 03:47:11;;;;;;;0.77;0.77;;;14.70;99.90;;;;;;5050940;28;20464;-75
2022/10/21 03:49:38;;;;;;;0.70;0.50;;;14.70;99.90;;;;;;5050585;28;20437;-74
2022/10/21 03:52:05;;;;;;;1.07;0.60;;;14.60;99.90;;;;;;5051597;28;20508;-75
2022/10/21 03:54:32;;;;;;;0.53;0.50;;;14.70;99.90;;;;;;5050560;28;20437;-75
2022/10/21 03:56:59;;;;;;;0.50;0.47;;;14.70;99.90;;;;;;5051651;28;20471;-75
2022/10/21 03:59:27;;;;;;;0.50;0.40;;;14.70;99.90;;;;;;5053747;28;20437;-75
2022/10/21 04:01:54;;;;;;;0.50;0.33;;;14.70;99.90;;;;;;5055476;28;20459;-75
2022/10/21 04:04:21;;;;;;;0.50;0.33;;;14.70;99.90;;;;;;5054489;28;20432;-75
2022/10/21 04:06:47;;;;;;;0.50;0.40;;;14.70;99.90;;;;;;5055583;28;20445;-74
2022/10/21 04:09:14;;;;;;;0.60;0.60;;;14.70;99.90;;;;;;5055194;28;20438;-74
2022/10/21 04:11:41;;;;;;;1.53;1.43;;;14.70;99.90;;;;;;5055199;28;20443;-75
2022/10/21 04:14:08;;;;;;;0.50;0.40;;;14.70;99.90;;;;;;5054819;28;20433;-74
2022/10/21 04:16:36;;;;;;;0.50;0.37;;;14.70;99.90;;;;;;5054895;28;20445;-75
2022/10/21 04:19:03;;;;;;;0.60;0.50;;;14.70;99.90;;;;;;5054096;28;20964;-75
2022/10/21 04:21:30;;;;;;;0.50;0.40;;;14.70;99.90;;;;;;5054944;28;20471;-75
2022/10/21 04:23:57;;;;;;;0.50;0.47;;;14.70;99.90;;;;;;5054257;28;20469;-74
2022/10/21 04:26:24;;;;;;;0.60;0.60;;;14.70;99.90;;;;;;5055002;28;20461;-73
2022/10/21 04:28:51;;;;;;;0.90;0.63;;;14.70;99.90;;;;;;5054317;28;20439;-75
2022/10/21 04:31:18;;;;;;;0.50;0.40;;;14.70;99.90;;;;;;5054467;28;20435;-75
2022/10/21 04:33:46;;;;;;;4.03;1.50;;;14.70;99.90;;;;;;5054351;28;20432;-74
2022/10/21 04:36:13;;;;;;;0.50;0.40;;;14.70;99.90;;;;;;5054299;28;20477;-75
2022/10/21 04:38:40;;;;;;;0.70;0.70;;;14.70;99.90;;;;;;5054356;28;20591;-77
2022/10/21 04:41:07;;;;;;;1.67;1.57;;;14.70;99.90;;;;;;5054367;28;20437;-74
2022/10/21 04:43:33;;;;;;;0.73;0.53;;;14.70;99.90;;;;;;5054481;28;20477;-75
2022/10/21 04:46:00;;;;;;;0.50;0.50;;;14.80;99.90;;;;;;5053643;28;20478;-75
2022/10/21 04:48:27;;;;;;;0.67;0.60;;;14.80;99.90;;;;;;5053439;28;20428;-75
2022/10/21 04:50:56;;;;;;;3.67;2.20;;;14.80;99.90;;;;;;5054068;28;20434;-75
2022/10/21 04:53:23;;;;;;;0.70;0.70;;;14.90;99.90;;;;;;5054050;28;20429;-75
2022/10/21 04:55:52;;;;;;;0.50;0.30;;;14.90;99.90;;;;;;5053226;28;20485;-74
2022/10/21 04:58:19;;;;;;;0.50;0.40;;;14.90;99.90;;;;;;5054219;28;20796;-76
2022/10/21 05:00:46;;;;;;;2.23;2.03;;;14.90;99.90;;;;;;5054105;28;20439;-75
2022/10/21 05:03:13;;;;;;;0.50;0.40;;;14.90;99.90;;;;;;5053989;28;20903;-75
2022/10/21 05:05:40;;;;;;;0.93;0.93;;;14.90;99.90;;;;;;5053582;28;20436;-76
2022/10/21 05:08:08;;;;;;;1.93;1.03;;;14.90;99.90;;;;;;5044206;28;20533;-76
2022/10/21 05:10:35;;;;;;;0.50;0.50;;;14.90;99.90;;;;;;5045029;28;20463;-75
2022/10/21 05:13:01;;;;;;;2.00;0.80;;;14.90;99.90;;;;;;5045010;28;20443;-76
2022/10/21 05:15:28;;;;;;;1.93;1.23;;;15.00;99.90;;;;;;5053428;28;20455;-75
2022/10/21 05:17:55;;;;;;;0.50;0.40;;;15.00;99.90;;;;;;5053980;28;20433;-75
2022/10/21 05:20:22;;;;;;;0.70;0.50;;;15.00;99.90;;;;;;5053993;28;20429;-76
2022/10/21 05:22:50;;;;;;;0.50;0.50;;;15.00;99.90;;;;;;5053257;28;20467;-76
2022/10/21 05:25:19;;;;;;;0.50;0.30;;;15.00;99.90;;;;;;5053521;28;20442;-77
2022/10/21 05:27:45;;;;;;;1.00;0.70;;;15.00;99.90;;;;;;5053591;28;20456;-76
2022/10/21 05:30:13;;;;;;;0.50;0.30;;;15.00;99.90;;;;;;5054144;28;20433;-75
2022/10/21 05:32:40;;;;;;;0.50;0.40;;;15.00;99.90;;;;;;5053850;28;20447;-75
2022/10/21 05:35:08;;;;;;;0.90;0.40;;;15.00;99.90;;;;;;5053474;28;20432;-75
2022/10/21 05:37:35;;;;;;;0.50;0.30;;;15.00;99.90;;;;;;5053491;28;20537;-75
2022/10/21 05:40:03;;;;;;;0.83;0.70;;;15.00;99.90;;;;;;5053414;28;21021;-75
2022/10/21 05:42:31;;;;;;;0.50;0.40;;;15.00;99.90;;;;;;5053309;28;20437;-75
2022/10/21 05:44:58;;;;;;;2.40;1.03;;;14.90;99.90;;;;;;5053331;28;20440;-75
2022/10/21 05:47:25;;;;;;;0.50;0.40;;;15.00;99.90;;;;;;5052893;28;20461;-75
2022/10/21 05:49:52;;;;;;;0.50;0.40;;;14.90;99.90;;;;;;5052987;28;20429;-75
2022/10/21 05:52:19;;;;;;;1.10;0.80;;;14.90;99.90;;;;;;5053084;28;20429;-75
2022/10/21 05:54:46;;;;;;;0.50;0.40;;;14.90;99.90;;;;;;5052895;28;20445;-75
2022/10/21 05:57:12;;;;;;;0.50;0.50;;;14.80;99.90;;;;;;5052558;28;20891;-75
2022/10/21 05:59:41;;;;;;;0.50;0.30;;;14.80;99.90;;;;;;5052623;28;20433;-75
2022/10/21 06:02:08;;;;;;;0.50;0.30;;;14.80;99.90;;;;;;5052382;28;20435;-75
2022/10/21 06:04:35;;;;;;;0.50;0.40;;;14.70;99.90;;;;;;5052493;28;20821;-75
2022/10/21 06:07:02;;;;;;;0.50;0.37;;;14.70;99.90;;;;;;5052460;28;20536;-75
2022/10/21 06:09:29;;;;;;;0.50;0.37;;;14.70;99.90;;;;;;5052864;28;20479;-74
2022/10/21 06:11:56;;;;;;;0.50;0.40;;;14.70;99.90;;;;;;5052389;28;20926;-74
2022/10/21 06:14:23;;;;;;;0.50;0.30;;;14.70;99.90;;;;;;5052513;28;20429;-74
2022/10/21 06:16:51;;;;;;;0.50;0.40;;;14.70;99.90;;;;;;5052178;28;20464;-75
2022/10/21 06:19:18;;;;;;;0.50;0.40;;;14.70;99.90;;;;;;5052419;28;20440;-75
2022/10/21 06:21:46;;;;;;;0.60;0.50;;;14.70;99.90;;;;;;5051824;28;20512;-74
2022/10/21 06:24:13;;;;;;;0.50;0.50;;;14.70;99.90;;;;;;5051994;28;20672;-75
2022/10/21 06:26:40;;;;;;;0.50;0.40;;;14.70;99.90;;;;;;5051982;28;20455;-74
2022/10/21 06:29:07;;;;;;;0.50;0.40;;;14.70;99.90;;;;;;5052018;28;20524;-75
2022/10/21 06:31:34;;;;;;;0.50;0.40;;;14.70;99.90;;;;;;5051818;28;20497;-75
2022/10/21 06:34:02;;;;;;;0.50;0.40;;;14.70;99.90;;;;;;5051983;28;20429;-74
2022/10/21 06:36:29;;;;;;;0.50;0.40;;;14.80;99.90;;;;;;5052157;28;20481;-74
2022/10/21 06:38:56;;;;;;;0.50;0.40;;;14.70;99.90;;;;;;5051643;28;20469;-75
2022/10/21 06:41:23;;;;;;;0.50;0.40;;;14.70;99.90;;;;;;5051951;28;20437;-74
2022/10/21 06:43:49;;;;;;;0.50;0.40;;;14.80;99.90;;;;;;5051944;28;20465;-75
2022/10/21 06:46:17;;;;;;;0.50;0.40;;;14.80;99.90;;;;;;5051459;28;20467;-75
2022/10/21 06:48:43;;;;;;;0.50;0.40;;;14.80;99.90;;;;;;5087413;22;20490;-77
2022/10/21 06:51:14;;;;;;;0.50;0.40;;;14.90;99.90;;;;;;5084581;28;20443;-75
2022/10/21 06:53:42;;;;;;;0.50;0.40;;;14.90;99.90;;;;;;5090298;28;20427;-76
2022/10/21 06:56:11;;;;;;;0.50;0.40;;;14.90;99.90;;;;;;5091954;28;20426;-75
2022/10/21 06:58:42;;;;;;;0.50;0.40;;;15.00;99.90;;;;;;5091805;28;20447;-76
2022/10/21 07:01:09;;;;;;;1.23;1.13;;;15.00;99.90;;;;;;5092497;28;20808;-78
2022/10/21 07:03:36;;;;;;;0.50;0.30;;;15.00;99.90;;;;;;5091745;28;20482;-77
2022/10/21 07:06:03;;;;;;;0.50;0.37;;;15.10;99.90;;;;;;5091758;28;20431;-77
2022/10/21 07:08:32;;;;;;;0.50;0.30;;;15.20;99.90;;;;;;5091789;28;20473;-78
2022/10/21 07:10:59;;;;;;;0.50;0.40;;;15.20;99.90;;;;;;5091654;28;20770;-76
2022/10/21 07:13:26;;;;;;;0.50;0.40;;;15.20;99.90;;;;;;5091792;28;20434;-77
2022/10/21 07:15:59;;;;;;;0.50;0.40;;;15.30;99.90;;;;;;5091110;28;20434;-77
2022/10/21 07:18:27;;;;;;;0.50;0.40;;;15.40;99.90;;;;;;5091650;28;20455;-77
2022/10/21 07:20:54;;;;;;;0.50;0.40;;;15.40;99.90;;;;;;5091693;28;20431;-77
2022/10/21 07:23:21;;;;;;;0.50;0.30;;;15.40;99.90;;;;;;5088566;28;21070;-77
2022/10/21 07:25:49;;;;;;;0.50;0.50;;;15.50;99.90;;;;;;5085132;28;20445;-76
2022/10/21 07:28:16;;;;;;;0.50;0.40;;;15.60;99.90;;;;;;5094031;28;20487;-77
2022/10/21 07:30:44;;;;;;;0.50;0.40;;;15.70;99.90;;;;;;5094614;28;20435;-77
2022/10/21 07:33:11;;;;;;;0.50;0.40;;;15.70;99.90;;;;;;5091597;28;20473;-77
2022/10/21 07:35:38;;;;;;;0.50;0.40;;;15.80;99.90;;;;;;5077719;28;20535;-77
2022/10/21 07:38:05;;;;;;;0.50;0.40;;;15.80;99.90;;;;;;5096245;28;20459;-79
2022/10/21 07:40:33;;;;;;;0.50;0.30;;;15.80;99.90;;;;;;5096152;28;20447;-76
2022/10/21 07:43:01;;;;;;;0.67;0.67;;;15.90;99.90;;;;;;5095084;28;20534;-77
2022/10/21 07:45:28;;;;;;;0.50;0.40;;;16.00;99.90;;;;;;5095269;28;20467;-77
2022/10/21 07:47:55;;;;;;;0.50;0.40;;;16.00;99.90;;;;;;5093977;28;20493;-77
2022/10/21 07:50:21;;;;;;;0.50;0.40;;;16.10;99.90;;;;;;5093762;28;20836;-77
2022/10/21 07:52:48;;;;;;;0.50;0.33;;;16.20;99.90;;;;;;5092721;28;20474;-77
2022/10/21 07:55:17;;;;;;;0.50;0.30;;;16.20;99.90;;;;;;5093585;28;20524;-77
2022/10/21 07:57:44;;;;;;;0.50;0.30;;;16.20;99.90;;;;;;5092373;28;20461;-78
2022/10/21 08:00:12;;;;;;;0.50;0.30;;;16.20;99.90;;;;;;5092010;28;20471;-77
2022/10/21 08:02:40;;;;;;;0.80;0.80;;;16.20;99.90;;;;;;5092218;28;20527;-78
2022/10/21 08:05:07;;;;;;;0.50;0.30;;;16.30;99.90;;;;;;5091860;28;20822;-77
2022/10/21 08:07:34;;;;;;;0.70;0.70;;;16.30;99.90;;;;;;5070188;28;20464;-77
2022/10/21 08:10:01;;;;;;;0.63;0.63;;;16.40;99.90;;;;;;5072049;28;20443;-77
2022/10/21 08:12:28;;;;;;;0.50;0.40;;;16.40;99.90;;;;;;5071813;28;20786;-78
2022/10/21 08:14:55;;;;;;;0.50;0.40;;;16.40;99.90;;;;;;5077970;28;20558;-78
2022/10/21 08:17:23;;;;;;;0.90;0.90;;;16.40;99.90;;;;;;5089572;28;20899;-78
2022/10/21 08:19:50;;;;;;;2.27;1.10;;;16.40;99.90;;;;;;5095619;28;20515;-78
2022/10/21 08:22:17;;;;;;;0.53;0.43;;;16.40;99.90;;;;;;5093854;28;20488;-78
2022/10/21 08:24:43;;;;;;;0.50;0.30;;;16.40;99.90;;;;;;5092668;28;21039;-78
2022/10/21 08:27:10;;;;;;;1.43;1.27;;;16.40;99.90;;;;;;5091649;28;20449;-79
2022/10/21 08:29:37;;;;;;;0.50;0.30;;;16.40;99.90;;;;;;5092532;28;20542;-78
2022/10/21 08:32:04;;;;;;;0.67;0.67;;;16.30;99.90;;;;;;5091909;28;20446;-78
2022/10/21 08:34:32;;;;;;;1.37;1.13;;;16.40;99.90;;;;;;5090693;28;20538;-78
2022/10/21 08:36:59;;;;;;;2.50;0.73;;;16.40;99.90;;;;;;5091861;28;20530;-78
2022/10/21 08:39:27;;;;;;;1.27;1.17;;;16.40;99.90;;;;;;5091227;28;20550;-78
2022/10/21 08:42:05;;;;;;;1.47;1.00;;;16.40;99.90;;;;;;5091370;28;21013;-78
2022/10/21 08:44:42;;;;;;;0.50;0.30;;;16.40;99.90;;;;;;5082069;28;20550;-78
2022/10/21 08:47:17;;;;;;;0.97;0.97;;;16.30;99.90;;;;;;5073433;28;20447;-78
2022/10/21 08:49:53;;;;;;;1.13;1.13;;;16.30;99.90;;;;;;5075153;28;20916;-78
2022/10/21 08:52:25;;;;;;;0.50;0.40;;;16.30;99.90;;;;;;5084270;28;20458;-78
2022/10/21 08:54:56;;;;;;;0.50;0.30;;;16.30;99.90;;;;;;5074913;28;20492;-77
2022/10/21 08:57:23;;;;;;;0.90;0.80;;;16.30;99.90;;;;;;5074667;28;20435;-78
2022/10/21 08:59:50;;;;;;;0.50;0.30;;;16.20;99.90;;;;;;5075263;28;20433;-78
2022/10/21 09:02:28;;;;;;;2.30;0.67;;;16.20;99.90;;;;;;5075108;28;20470;-77
2022/10/21 09:05:21;;;;;;;9.43;8.80;;;16.20;99.90;;;;;;5075260;28;20472;-78
2022/10/21 09:07:59;;;;;;;0.50;0.30;;;16.20;99.90;;;;;;5074940;28;20995;-78
2022/10/21 09:10:39;;;;;;;1.57;1.47;;;16.20;99.90;;;;;;5074966;28;20526;-78
2022/10/21 09:13:13;;;;;;;0.50;0.30;;;16.20;99.90;;;;;;5074990;28;20428;-78
2022/10/21 09:15:50;;;;;;;1.10;0.87;;;16.20;99.90;;;;;;5074365;28;20435;-78
2022/10/21 09:18:29;;;;;;;0.50;0.30;;;16.20;99.90;;;;;;5075208;28;20464;-78
2022/10/21 09:21:04;;;;;;;0.50;0.30;;;16.20;99.90;;;;;;5075269;28;20431;-77
2022/10/21 09:23:44;;;;;;;0.50;0.30;;;16.10;99.90;;;;;;5074786;28;20446;-77
2022/10/21 09:26:22;;;;;;;0.50;0.30;;;16.10;99.90;;;;;;5074795;28;20897;-77
2022/10/21 09:28:50;;;;;;;0.50;0.40;;;16.10;99.90;;;;;;5074575;28;20551;-78
2022/10/21 09:31:20;;;;;;;0.50;0.30;;;16.10;99.90;;;;;;5074493;28;20442;-78
2022/10/21 09:33:49;;;;;;;0.50;0.30;;;16.10;99.90;;;;;;5073860;28;20950;-77
2022/10/21 09:36:24;;;;;;;0.50;0.30;;;16.00;99.90;;;;;;5073372;28;20436;-78
2022/10/21 09:38:56;;;;;;;1.53;0.93;;;16.00;99.90;;;;;;5073980;28;20988;-78
2022/10/21 09:41:26;;;;;;;1.03;0.70;;;16.00;99.90;;;;;;5073961;28;20424;-78
2022/10/21 09:43:54;;;;;;;0.80;0.50;;;16.00;99.90;;;;;;5074037;28;20447;-78
2022/10/21 09:46:22;;;;;;;0.50;0.30;;;16.00;99.90;;;;;;5075804;28;20536;-77
2022/10/21 09:48:51;;;;;;;0.60;0.40;;;16.10;99.90;;;;;;5074870;28;20479;-77
2022/10/21 09:51:22;;;;;;;0.60;0.40;;;16.10;99.90;;;;;;5075993;28;20433;-78
2022/10/21 09:53:52;;;;;;;4.07;1.97;;;16.10;99.90;;;;;;5076022;28;20443;-77
2022/10/21 09:56:22;;;;;;;0.60;0.50;;;16.10;99.90;;;;;;5073954;28;21087;-78
2022/10/21 09:58:51;;;;;;;0.50;0.40;;;16.20;99.90;;;;;;5074961;28;20538;-78
2022/10/21 10:01:20;;;;;;;2.43;1.80;;;16.20;99.90;;;;;;5074030;28;20530;-77
2022/10/21 10:03:49;;;;;;;2.23;0.93;;;16.20;99.90;;;;;;5075097;28;20467;-76
2022/10/21 10:06:32;;;;;;;0.50;0.30;;;16.20;99.90;;;;;;5074151;28;20452;-77
2022/10/21 10:09:08;;;;;;;0.50;0.30;;;16.10;99.90;;;;;;5073536;28;20460;-77
2022/10/21 10:11:49;;;;;;;0.50;0.37;;;16.10;99.90;;;;;;5073308;28;20443;-77
2022/10/21 10:14:26;;;;;;;3.13;1.50;;;16.10;99.90;;;;;;5072988;28;20434;-77
2022/10/21 10:16:52;;;;;;;1.40;1.03;;;16.10;99.90;;;;;;5072830;28;20446;-77
2022/10/21 10:19:21;;;;;;;0.50;0.40;;;16.00;99.90;;;;;;5073395;28;20461;-77
2022/10/21 10:22:09;;;;;;;1.07;0.67;;;15.90;99.90;;;;;;5073163;28;20523;-77
2022/10/21 10:24:39;;;;;;;1.43;1.00;;;15.80;99.90;;;;;;5072621;28;20452;-77
2022/10/21 10:27:07;;;;;;;1.20;0.90;;;15.70;99.90;;;;;;5072143;28;20444;-78
2022/10/21 10:29:36;;;;;;;0.87;0.60;;;15.60;99.90;;;;;;5072724;28;20464;-77
2022/10/21 10:32:03;;;;;;;3.10;1.00;;;15.60;99.90;;;;;;5072981;28;20494;-76
2022/10/21 10:34:34;;;;;;;26.90;3.70;;;15.60;99.90;;;;;;5072704;28;20432;-77
2022/10/21 10:37:06;;;;;;;0.50;0.30;;;15.50;99.90;;;;;;5072348;28;20417;-76
2022/10/21 10:39:36;;;;;;;7.80;3.23;;;15.50;99.90;;;;;;5072350;28;20822;-76
2022/10/21 10:42:03;;;;;;;0.50;0.40;;;15.50;99.90;;;;;;5071648;28;20446;-77
2022/10/21 10:44:37;;;;;;;0.60;0.53;;;15.50;99.90;;;;;;5071613;28;20484;-77
2022/10/21 10:47:07;;;;;;;0.60;0.60;;;15.60;99.90;;;;;;5072284;28;20436;-76
2022/10/21 10:49:38;;;;;;;0.50;0.30;;;15.50;99.90;;;;;;5071521;28;20470;-78
2022/10/21 10:52:19;;;;;;;0.50;0.40;;;15.60;99.90;;;;;;5072546;28;20429;-77
2022/10/21 10:54:47;;;;;;;0.50;0.40;;;15.60;99.90;;;;;;5072130;28;20816;-76
2022/10/21 10:57:17;;;;;;;5.53;1.07;;;15.60;99.90;;;;;;5071853;28;20447;-78
2022/10/21 10:59:47;;;;;;;0.70;0.70;;;15.60;99.90;;;;;;5071937;28;20436;-77
2022/10/21 11:02:34;;;;;;;0.50;0.40;;;15.60;99.90;;;;;;5071407;28;20436;-77
2022/10/21 11:05:13;;;;;;;0.50;0.43;;;15.60;99.90;;;;;;5075838;28;20470;-78
2022/10/21 11:07:45;;;;;;;0.53;0.53;;;15.60;99.90;;;;;;5090396;28;20459;-78
2022/10/21 11:10:26;;;;;;;0.50;0.40;;;15.60;99.90;;;;;;5092345;28;20447;-79
2022/10/21 11:12:53;;;;;;;0.70;0.40;;;15.70;99.90;;;;;;5089119;28;20447;-78
2022/10/21 11:15:26;;;;;;;1.17;1.13;;;15.80;99.90;;;;;;5090322;28;20435;-78
2022/10/21 11:17:59;;;;;;;1.50;1.40;;;15.80;99.90;;;;;;5084806;28;20450;-78
2022/10/21 11:20:32;;;;;;;0.50;0.30;;;15.80;99.90;;;;;;5092770;28;20518;-75
2022/10/21 11:23:14;;;;;;;0.50;0.30;;;15.90;99.90;;;;;;5092767;28;20420;-78
2022/10/21 11:25:44;;;;;;;0.50;0.30;;;16.10;99.90;;;;;;5092530;28;20798;-79
2022/10/21 11:28:19;;;;;;;3.90;1.13;;;16.20;99.90;;;;;;5094631;28;20455;-79
2022/10/21 11:30:59;;;;;;;0.50;0.40;;;16.20;99.90;;;;;;5095188;28;20471;-78
2022/10/21 11:33:37;;;;;;;1.53;1.23;;;16.30;99.90;;;;;;5093178;28;20433;-78
2022/10/21 11:36:07;;;;;;;0.70;0.70;;;16.40;99.90;;;;;;5093605;28;20446;-79
2022/10/21 11:38:53;;;;;;;0.50;0.40;;;16.50;99.90;;;;;;5094457;28;20465;-79
2022/10/21 11:41:28;;;;;;;1.27;1.17;;;16.70;99.90;;;;;;5096345;28;20503;-79
2022/10/21 11:44:04;;;;;;;0.87;0.67;;;16.80;99.90;;;;;;5094288;28;20443;-77
2022/10/21 11:46:40;;;;;;;0.67;0.67;;;17.10;99.90;;;;;;5094016;28;20471;-77
2022/10/21 11:49:21;;;;;;;1.00;0.97;;;17.30;99.90;;;;;;5092900;28;20534;-78
2022/10/21 11:52:00;;;;;;;0.50;0.47;;;17.50;99.90;;;;;;5093860;28;20766;-79
2022/10/21 11:54:43;;;;;;;0.50;0.40;;;17.60;99.90;;;;;;5094180;28;20565;-74
2022/10/21 11:57:16;;;;;;;0.50;0.30;;;17.70;99.90;;;;;;5093199;28;20430;-79
2022/10/21 12:00:01;;;;;;;0.50;0.30;;;17.90;99.90;;;;;;5093443;28;20436;-79
2022/10/21 12:02:40;;;;;;;0.63;0.43;;;18.10;99.90;;;;;;5093341;28;20435;-78
2022/10/21 12:05:13;;;;;;;0.50;0.30;;;18.20;99.90;;;;;;5091469;28;20474;-77
2022/10/21 12:07:58;;;;;;;0.50;0.30;;;18.40;99.90;;;;;;5091930;28;20482;-77
2022/10/21 12:10:32;;;;;;;0.50;0.30;;;18.60;99.90;;;;;;5089692;28;20466;-78
2022/10/21 12:13:04;;;;;;;0.50;0.37;;;18.60;99.90;;;;;;5078325;28;20944;-78
2022/10/21 12:15:40;;;;;;;0.50;0.30;;;18.60;99.90;;;;;;5090873;28;20530;-78
2022/10/21 12:18:14;;;;;;;1.90;0.67;;;18.80;99.90;;;;;;5093119;28;20516;-78
2022/10/21 12:20:42;;;;;;;0.57;0.47;;;18.80;99.90;;;;;;5077808;28;20527;-77
2022/10/21 12:23:13;;;;;;;0.50;0.40;;;18.80;99.90;;;;;;5088009;28;20485;-79
2022/10/21 12:25:49;;;;;;;0.50;0.30;;;18.80;99.90;;;;;;5085586;28;20976;-77
2022/10/21 12:28:24;;;;;;;0.50;0.30;;;18.80;99.90;;;;;;5087166;28;20474;-80
2022/10/21 12:30:59;;;;;;;0.60;0.50;;;18.90;99.90;;;;;;5080796;28;20424;-78
2022/10/21 12:33:37;;;;;;;0.50;0.40;;;19.10;99.90;;;;;;5075010;28;20511;-76
2022/10/21 12:36:19;;;;;;;0.70;0.60;;;19.20;99.90;;;;;;5077391;28;20416;-77
2022/10/21 12:38:48;;;;;;;0.50;0.30;;;19.40;99.90;;;;;;5075265;28;20466;-77
2022/10/21 12:41:33;;;;;;;0.50;0.30;;;19.60;99.90;;;;;;5075412;28;20440;-78
2022/10/21 12:44:21;;;;;;;0.50;0.30;;;19.60;99.90;;;;;;5074998;28;20436;-79
2022/10/21 12:46:51;;;;;;;0.50;0.30;;;19.70;99.90;;;;;;5076152;28;20472;-77
2022/10/21 12:49:25;;;;;;;0.50;0.30;;;19.60;99.90;;;;;;5089172;22;20478;-74
2022/10/21 12:51:56;;;;;;;0.80;0.50;;;19.50;99.90;;;;;;5048469;28;20468;-76
2022/10/21 12:54:26;;;;;;;0.50;0.40;;;19.60;99.90;;;;;;5047734;28;20437;-76
2022/10/21 12:57:02;;;;;;;2.50;2.30;;;19.70;99.90;;;;;;5034373;28;20448;-75
2022/10/21 12:59:32;;;;;;;0.50;0.30;;;19.90;99.90;;;;;;5045560;28;20464;-76
2022/10/21 13:02:20;;;;;;;0.50;0.40;;;19.90;99.90;;;;;;5053958;28;20452;-76
2022/10/21 13:04:50;;;;;;;0.50;0.40;;;20.00;99.90;;;;;;5052563;28;20509;-76